Time;durP1;ratioP1;P1;durP2;ratioP2;P2;SDS_P1;SDS_P2;PMS_P1;PMS_P2;Temp;Humidity;BMP_temperature;BMP_pressure;BME280_temperature;BME280_humidity;BME280_pressure;Samples;Min_cycle;Max_cycle;Signal;HPM_P1;HPM_P2
2023/07/06 00:02:40;;;;;;;16.23;3.75;;;19.80;95.40;;;;;;10482106;28;20139;-37
2023/07/06 00:07:43;;;;;;;13.77;2.75;;;19.60;93.90;;;;;;10497914;28;20068;-35
2023/07/06 00:12:45;;;;;;;16.35;3.08;;;19.80;92.90;;;;;;10488140;28;20084;-38
2023/07/06 00:17:47;;;;;;;14.35;2.97;;;19.70;96.20;;;;;;10495196;28;20113;-33
2023/07/06 00:22:50;;;;;;;;;;;18.80;98.60;;;;;;10495744;28;20420;-36
2023/07/06 00:27:53;;;;;;;19.15;3.22;;;19.20;98.30;;;;;;10494031;28;19962;-34
2023/07/06 00:32:56;;;;;;;15.43;3.17;;;18.40;99.90;;;;;;10506177;28;20040;-36
2023/07/06 00:37:59;;;;;;;12.32;3.22;;;18.60;99.90;;;;;;10501810;28;20059;-32
2023/07/06 00:43:01;;;;;;;10.70;2.88;;;18.20;99.90;;;;;;10489740;28;20345;-35
2023/07/06 00:48:04;;;;;;;15.30;3.53;;;18.40;99.90;;;;;;10487434;28;20052;-37
2023/07/06 00:53:09;;;;;;;;;;;18.70;99.90;;;;;;10493713;28;20604;-34
2023/07/06 00:58:16;;;;;;;15.05;2.95;;;19.60;99.90;;;;;;10491701;28;20007;-36
2023/07/06 01:03:19;;;;;;;26.48;4.38;;;18.60;99.60;;;;;;10510069;28;20047;-37
2023/07/06 01:08:25;;;;;;;23.92;3.45;;;17.90;99.90;;;;;;10493813;28;20094;-39
2023/07/06 01:13:26;;;;;;;17.30;3.30;;;18.00;99.90;;;;;;10489302;28;20131;-34
2023/07/06 01:18:39;;;;;;;25.88;4.00;;;18.20;99.90;;;;;;10488442;28;20569;-31
2023/07/06 01:23:55;;;;;;;;;;;18.10;99.90;;;;;;10491661;28;20044;-34
2023/07/06 01:29:25;;;;;;;16.30;4.35;;;18.70;99.90;;;;;;10473446;28;20011;-34
2023/07/06 01:34:35;;;;;;;18.48;3.50;;;18.30;99.90;;;;;;10498067;28;20072;-34
2023/07/06 01:39:37;;;;;;;15.30;3.70;;;18.40;99.90;;;;;;10488659;28;20048;-35
2023/07/06 01:44:43;;;;;;;14.23;3.53;;;18.60;99.90;;;;;;10495616;28;20072;-35
2023/07/06 01:49:49;;;;;;;14.63;3.58;;;19.30;98.00;;;;;;10490184;28;20120;-32
2023/07/06 01:54:58;;;;;;;6.10;2.00;;;20.50;91.20;;;;;;10493077;28;20048;-33
2023/07/06 02:00:08;;;;;;;4.35;2.03;;;19.90;92.40;;;;;;10484139;28;20084;-35
2023/07/06 02:05:13;;;;;;;12.77;3.00;;;20.20;91.10;;;;;;10500154;28;20059;-35
2023/07/06 02:10:17;;;;;;;16.08;2.63;;;20.70;91.50;;;;;;10491864;28;20060;-37
2023/07/06 02:15:19;;;;;;;11.07;1.95;;;20.20;94.80;;;;;;10486304;28;20064;-35
2023/07/06 02:20:22;;;;;;;7.00;1.92;;;18.30;99.90;;;;;;10497585;28;20127;-40
2023/07/06 02:25:24;;;;;;;6.75;1.50;;;19.00;96.60;;;;;;10497920;28;20123;-36
2023/07/06 02:30:26;;;;;;;6.43;1.80;;;18.60;99.70;;;;;;10494277;28;20135;-34
2023/07/06 02:35:29;;;;;;;11.50;1.83;;;18.80;98.90;;;;;;10490694;28;20123;-35
2023/07/06 02:40:32;;;;;;;4.45;2.17;;;18.20;99.90;;;;;;10484535;28;20131;-33
2023/07/06 02:45:33;;;;;;;7.20;1.88;;;18.20;99.90;;;;;;10498230;28;20051;-35
2023/07/06 02:50:37;;;;;;;8.48;2.13;;;18.30;97.80;;;;;;10486997;28;20433;-37
2023/07/06 02:55:38;;;;;;;4.60;1.50;;;18.60;99.90;;;;;;10504406;28;21934;-37
2023/07/06 03:15:31;;;;;;;4.85;1.85;;;18.80;98.10;;;;;;10559557;27;20116;-34
2023/07/06 03:20:36;;;;;;;7.18;2.17;;;19.40;94.10;;;;;;10566383;27;20076;-34
2023/07/06 03:25:38;;;;;;;4.82;1.75;;;19.40;93.10;;;;;;10574118;28;20039;-33
2023/07/06 03:30:43;;;;;;;6.55;1.80;;;18.70;96.40;;;;;;10574527;28;20035;-34
2023/07/06 03:35:44;;;;;;;10.05;1.83;;;19.10;98.30;;;;;;10569611;28;20047;-35
2023/07/06 03:40:49;;;;;;;6.53;1.95;;;19.90;93.50;;;;;;10574608;27;20072;-33
2023/07/06 03:45:52;;;;;;;6.03;1.55;;;18.90;97.60;;;;;;10565211;28;20055;-33
2023/07/06 03:50:54;;;;;;;4.18;1.52;;;19.50;92.80;;;;;;10565339;28;20079;-33
2023/07/06 03:55:56;;;;;;;6.63;1.58;;;20.40;88.60;;;;;;10565152;28;20126;-35
2023/07/06 04:00:59;;;;;;;3.13;1.02;;;19.80;90.50;;;;;;10574655;28;20048;-35
2023/07/06 04:06:03;;;;;;;4.38;1.38;;;20.20;81.50;;;;;;10573532;28;20048;-36
2023/07/06 04:11:05;;;;;;;2.47;1.20;;;19.70;91.90;;;;;;10563749;28;20131;-33
2023/07/06 04:16:09;;;;;;;;;;;19.20;91.90;;;;;;10565192;28;20044;-35
2023/07/06 04:21:12;;;;;;;2.15;1.35;;;20.30;89.80;;;;;;10558313;28;19960;-33
2023/07/06 04:26:14;;;;;;;1.38;0.80;;;20.90;75.80;;;;;;10538928;28;20071;-32
2023/07/06 04:31:18;;;;;;;2.72;0.68;;;22.80;65.70;;;;;;10550584;28;20162;-33
2023/07/06 04:36:20;;;;;;;2.13;0.98;;;23.00;64.70;;;;;;10542260;27;20047;-36
2023/07/06 04:41:22;;;;;;;1.77;1.15;;;23.20;64.60;;;;;;10532751;28;20488;-35
2023/07/06 04:46:25;;;;;;;4.18;1.05;;;23.30;64.70;;;;;;10542304;28;20062;-33
2023/07/06 04:51:27;;;;;;;3.88;1.23;;;23.40;64.80;;;;;;10536362;28;20088;-33
2023/07/06 04:56:29;;;;;;;2.33;1.00;;;23.40;65.00;;;;;;10534646;28;20051;-35
2023/07/06 05:01:32;;;;;;;;;;;23.60;65.10;;;;;;10546157;28;20059;-31
2023/07/06 05:06:33;;;;;;;4.25;1.05;;;23.50;65.10;;;;;;10532919;28;19920;-36
2023/07/06 05:11:35;;;;;;;5.70;1.40;;;23.60;65.20;;;;;;10531696;28;20087;-34
2023/07/06 05:16:38;;;;;;;3.88;1.23;;;23.60;65.30;;;;;;10535588;28;20040;-38
2023/07/06 05:21:40;;;;;;;3.50;1.00;;;23.30;66.80;;;;;;10543003;28;20090;-36
2023/07/06 05:26:42;;;;;;;4.32;1.33;;;23.30;67.30;;;;;;10531155;28;20052;-36
2023/07/06 05:31:48;;;;;;;3.90;1.10;;;23.20;67.60;;;;;;10531873;28;20134;-35
2023/07/06 05:36:50;;;;;;;3.42;1.60;;;23.30;67.80;;;;;;10531353;28;20463;-37
2023/07/06 05:41:52;;;;;;;2.80;1.17;;;23.30;67.50;;;;;;10535220;28;20048;-34
2023/07/06 05:46:55;;;;;;;;;;;23.60;66.20;;;;;;10525666;28;20147;-34
2023/07/06 05:51:57;;;;;;;3.35;1.05;;;23.70;65.90;;;;;;10525631;28;20011;-35
2023/07/06 05:57:02;;;;;;;3.97;1.83;;;23.70;65.80;;;;;;10529227;28;20142;-34
2023/07/06 06:02:06;;;;;;;5.82;1.13;;;23.80;66.20;;;;;;10518255;28;20044;-38
2023/07/06 06:07:09;;;;;;;8.43;1.92;;;23.90;65.50;;;;;;10527503;28;20040;-36
2023/07/06 06:12:18;;;;;;;3.55;1.05;;;23.90;65.30;;;;;;10526459;28;20142;-33
2023/07/06 06:17:21;;;;;;;5.65;1.92;;;23.90;65.50;;;;;;10528847;28;20181;-34
2023/07/06 06:22:23;;;;;;;3.38;1.48;;;23.90;65.60;;;;;;10538235;28;20060;-33
2023/07/06 06:27:25;;;;;;;6.53;1.50;;;23.90;65.90;;;;;;10530533;28;20044;-35
2023/07/06 06:32:29;;;;;;;;;;;23.90;65.90;;;;;;10530093;28;20552;-36
2023/07/06 06:37:31;;;;;;;4.13;1.25;;;23.90;65.90;;;;;;10528024;28;19924;-34
2023/07/06 06:42:33;;;;;;;5.60;1.25;;;23.90;65.70;;;;;;10529495;28;20040;-34
2023/07/06 06:47:36;;;;;;;5.28;1.60;;;23.00;69.30;;;;;;10524200;28;20448;-34
2023/07/06 06:52:38;;;;;;;4.70;1.42;;;23.70;67.50;;;;;;10528104;28;20070;-34
2023/07/06 06:57:40;;;;;;;3.67;1.90;;;23.30;69.30;;;;;;10528890;28;20555;-34
2023/07/06 07:02:43;;;;;;;5.75;1.80;;;23.00;70.50;;;;;;10526580;28;20048;-35
2023/07/06 07:07:45;;;;;;;6.10;1.58;;;23.10;71.40;;;;;;10526879;28;20465;-33
2023/07/06 07:12:47;;;;;;;5.38;1.50;;;22.70;73.20;;;;;;10526414;28;20063;-34
2023/07/06 07:17:51;;;;;;;;;;;22.60;74.10;;;;;;10526785;28;20143;-35
2023/07/06 07:22:54;;;;;;;3.65;1.50;;;22.40;74.00;;;;;;10527469;28;19985;-35
2023/07/06 07:27:56;;;;;;;7.47;1.60;;;22.90;71.70;;;;;;10539013;28;20056;-33
2023/07/06 07:32:59;;;;;;;6.60;2.20;;;22.70;71.70;;;;;;10527289;28;20086;-33
2023/07/06 07:38:01;;;;;;;2.05;1.17;;;22.40;74.50;;;;;;10536411;28;20123;-38
2023/07/06 07:43:04;;;;;;;6.85;1.42;;;22.60;74.30;;;;;;10527925;28;20097;-38
2023/07/06 07:48:07;;;;;;;2.90;1.17;;;22.70;74.30;;;;;;10523220;28;20051;-34
2023/07/06 07:53:09;;;;;;;2.53;1.00;;;22.90;71.50;;;;;;10519832;28;20072;-33
2023/07/06 07:58:11;;;;;;;3.55;1.10;;;23.40;70.00;;;;;;10523219;28;20443;-34
2023/07/06 08:03:14;;;;;;;11.23;1.73;;;22.60;72.60;;;;;;10545109;28;20071;-36
2023/07/06 08:08:16;;;;;;;6.25;1.50;;;21.60;81.90;;;;;;10537891;28;20152;-37
2023/07/06 08:13:18;;;;;;;5.45;1.88;;;22.30;78.30;;;;;;10535517;28;20060;-35
2023/07/06 08:18:24;;;;;;;4.93;1.60;;;23.10;72.80;;;;;;10532091;28;20048;-36
2023/07/06 08:23:28;;;;;;;7.75;1.58;;;22.70;72.60;;;;;;10537134;28;20109;-40
2023/07/06 08:28:31;;;;;;;4.93;1.42;;;23.40;71.50;;;;;;10534393;28;20350;-33
2023/07/06 08:33:35;;;;;;;4.60;1.58;;;21.80;78.20;;;;;;10542492;28;20040;-34
2023/07/06 08:38:38;;;;;;;2.40;1.02;;;22.10;76.90;;;;;;10533435;28;20055;-36
2023/07/06 08:43:41;;;;;;;4.10;1.40;;;23.00;71.80;;;;;;10532900;28;20068;-35
2023/07/06 08:48:44;;;;;;;3.72;1.40;;;22.70;72.50;;;;;;10534431;28;20508;-33
2023/07/06 08:53:52;;;;;;;4.13;1.73;;;22.40;68.80;;;;;;10535284;28;20139;-36
2023/07/06 08:58:55;;;;;;;3.38;1.20;;;23.70;67.90;;;;;;10530693;28;20047;-36
2023/07/06 09:04:16;;;;;;;3.67;1.40;;;23.30;71.70;;;;;;10537255;28;20036;-33
2023/07/06 09:09:18;;;;;;;4.75;1.00;;;23.90;66.40;;;;;;10534435;28;20044;-34
2023/07/06 09:14:27;;;;;;;4.00;1.67;;;22.60;69.70;;;;;;10532513;28;20060;-35
2023/07/06 09:19:33;;;;;;;6.25;1.50;;;23.70;63.80;;;;;;10529682;28;20044;-36
2023/07/06 09:24:36;;;;;;;5.10;1.10;;;22.80;61.70;;;;;;10527556;28;20047;-41
2023/07/06 09:29:38;;;;;;;3.38;0.88;;;22.80;68.90;;;;;;10531132;28;20052;-35
2023/07/06 09:34:44;;;;;;;3.38;0.70;;;21.30;59.30;;;;;;10532350;28;20048;-34
2023/07/06 09:39:59;;;;;;;1.52;0.70;;;21.40;66.40;;;;;;10532010;28;20143;-33
2023/07/06 09:45:02;;;;;;;6.25;0.88;;;21.70;67.30;;;;;;10533351;28;20067;-32
2023/07/06 09:50:16;;;;;;;5.15;0.93;;;21.50;64.70;;;;;;10529423;28;20079;-32
2023/07/06 09:55:24;;;;;;;5.63;0.70;;;21.80;62.30;;;;;;10529624;28;20087;-35
2023/07/06 10:00:32;;;;;;;19.40;5.03;;;22.60;65.10;;;;;;10532258;28;20055;-31
2023/07/06 10:05:45;;;;;;;32.60;9.25;;;22.60;64.50;;;;;;10527586;28;20040;-32
2023/07/06 10:10:59;;;;;;;27.55;7.63;;;23.50;62.30;;;;;;10532631;28;20117;-31
2023/07/06 10:16:14;;;;;;;43.83;11.77;;;22.50;62.40;;;;;;10529172;28;20043;-33
2023/07/06 10:21:25;;;;;;;16.38;4.47;;;22.60;63.00;;;;;;10529259;28;20143;-35
2023/07/06 10:26:32;;;;;;;16.92;3.80;;;21.70;66.70;;;;;;10533810;28;20426;-31
2023/07/06 10:31:41;;;;;;;14.65;3.55;;;22.20;63.30;;;;;;10532232;28;20092;-34
2023/07/06 10:36:47;;;;;;;16.42;3.83;;;22.10;64.80;;;;;;10532261;28;20069;-39
2023/07/06 10:41:58;;;;;;;5.15;1.13;;;22.90;65.70;;;;;;10535675;28;20064;-42
2023/07/06 10:47:00;;;;;;;3.23;1.03;;;21.70;66.50;;;;;;10534808;28;20071;-41
2023/07/06 10:52:05;;;;;;;5.45;1.10;;;21.50;58.20;;;;;;10530570;28;20156;-38
2023/07/06 10:57:10;;;;;;;4.18;1.00;;;22.60;62.60;;;;;;10525554;28;20145;-42
2023/07/06 11:02:22;;;;;;;2.53;0.82;;;21.30;65.00;;;;;;10526837;28;20180;-40
2023/07/06 11:07:45;;;;;;;5.77;1.17;;;21.10;62.30;;;;;;10519478;28;20147;-38
2023/07/06 11:12:55;;;;;;;4.07;0.70;;;22.00;66.60;;;;;;10515157;28;20120;-37
2023/07/06 11:17:57;;;;;;;2.15;1.08;;;21.60;63.80;;;;;;10524290;28;20052;-40
2023/07/06 11:23:04;;;;;;;1.38;0.85;;;21.90;65.90;;;;;;10528524;28;20469;-39
2023/07/06 11:28:12;;;;;;;1.80;0.70;;;21.70;63.10;;;;;;10532830;28;20051;-40
2023/07/06 11:33:21;;;;;;;2.67;1.00;;;22.00;67.40;;;;;;10530657;28;20052;-41
2023/07/06 11:38:42;;;;;;;3.22;0.70;;;21.40;68.50;;;;;;10537641;28;20074;-42
2023/07/06 11:44:11;;;;;;;2.05;1.02;;;21.90;64.80;;;;;;10532433;28;20101;-43
2023/07/06 11:49:40;;;;;;;1.92;0.93;;;21.70;58.60;;;;;;10536870;28;20047;-43
2023/07/06 11:54:51;;;;;;;3.72;0.85;;;21.60;62.30;;;;;;10546576;28;20055;-41
2023/07/06 12:00:11;;;;;;;3.13;0.98;;;22.10;57.10;;;;;;10540048;28;20493;-36
2023/07/06 12:05:25;;;;;;;5.55;1.30;;;21.90;56.10;;;;;;10541922;28;20048;-38
2023/07/06 12:10:31;;;;;;;1.95;0.80;;;22.10;56.80;;;;;;10537096;28;20066;-36
2023/07/06 12:15:33;;;;;;;1.70;0.70;;;22.90;56.20;;;;;;10537684;28;20139;-42
2023/07/06 12:20:35;;;;;;;3.35;0.93;;;23.20;56.70;;;;;;10534662;28;20040;-41
2023/07/06 12:25:41;;;;;;;6.95;1.25;;;22.80;63.40;;;;;;10536525;28;20469;-36
2023/07/06 12:30:45;;;;;;;3.13;1.08;;;23.30;55.10;;;;;;10531873;28;20079;-39
2023/07/06 12:35:48;;;;;;;1.83;1.00;;;23.10;58.50;;;;;;10537879;28;20131;-35
2023/07/06 12:40:51;;;;;;;2.47;0.80;;;23.20;59.30;;;;;;10531696;28;20101;-37
2023/07/06 12:45:54;;;;;;;3.65;1.10;;;23.10;59.50;;;;;;10534599;28;20075;-39
2023/07/06 12:50:57;;;;;;;5.35;1.63;;;24.20;58.70;;;;;;10524092;28;20501;-43
2023/07/06 12:56:09;;;;;;;4.32;0.80;;;24.70;57.70;;;;;;10547252;28;20076;-39
2023/07/06 13:01:17;;;;;;;0.90;0.57;;;24.80;56.80;;;;;;10534438;28;20048;-39
2023/07/06 13:06:20;;;;;;;4.70;0.85;;;25.10;57.50;;;;;;10538176;28;20079;-42
2023/07/06 13:11:26;;;;;;;2.15;1.10;;;24.40;56.50;;;;;;10524342;28;20170;-36
2023/07/06 13:16:38;;;;;;;2.15;0.75;;;24.70;53.70;;;;;;10532822;28;20054;-39
2023/07/06 13:21:41;;;;;;;4.70;1.13;;;23.80;54.50;;;;;;10526926;28;20067;-38
2023/07/06 13:26:44;;;;;;;2.00;1.25;;;23.60;55.00;;;;;;10530726;28;20519;-37
2023/07/06 13:31:48;;;;;;;7.00;1.38;;;24.00;53.70;;;;;;10536875;28;20058;-37
2023/07/06 13:36:50;;;;;;;5.55;1.08;;;24.30;55.20;;;;;;10520415;28;20052;-39
2023/07/06 13:41:53;;;;;;;;;;;24.60;54.20;;;;;;10528680;28;20125;-43
2023/07/06 13:46:55;;;;;;;3.13;0.68;;;24.70;52.10;;;;;;10530465;28;19951;-38
2023/07/06 13:51:57;;;;;;;;;;;24.00;49.50;;;;;;10532126;28;20089;-41
2023/07/06 13:57:00;;;;;;;0.70;0.40;;;24.50;56.30;;;;;;10534029;28;20266;-42
2023/07/06 14:02:02;;;;;;;1.80;0.82;;;24.20;58.30;;;;;;10532123;28;20147;-43
2023/07/06 14:07:04;;;;;;;2.10;0.88;;;25.00;50.50;;;;;;10529449;28;20652;-40
2023/07/06 14:12:08;;;;;;;6.05;1.10;;;25.90;52.70;;;;;;10534754;28;20055;-41
2023/07/06 14:17:10;;;;;;;3.15;0.90;;;26.10;51.70;;;;;;10524803;28;20130;-43
2023/07/06 14:22:14;;;;;;;2.35;0.68;;;25.30;50.50;;;;;;10530129;28;20048;-41
2023/07/06 14:27:19;;;;;;;5.45;1.20;;;26.40;49.50;;;;;;10529257;28;20185;-41
2023/07/06 14:32:21;;;;;;;4.95;0.90;;;25.90;47.80;;;;;;10528757;28;20048;-39
2023/07/06 14:37:23;;;;;;;2.88;0.73;;;26.40;49.70;;;;;;10532956;28;20143;-39
2023/07/06 14:42:26;;;;;;;3.65;0.85;;;26.80;49.50;;;;;;10529559;28;20449;-39
2023/07/06 14:47:27;;;;;;;1.35;0.63;;;26.70;50.10;;;;;;10534204;28;20040;-39
2023/07/06 14:52:30;;;;;;;2.00;0.90;;;27.60;50.80;;;;;;10528957;28;20134;-40
2023/07/06 14:57:33;;;;;;;4.63;1.10;;;27.50;48.10;;;;;;10527948;28;20051;-42
2023/07/06 15:02:35;;;;;;;3.50;0.77;;;27.70;50.90;;;;;;10531464;28;20127;-39
2023/07/06 15:07:37;;;;;;;1.90;0.57;;;28.20;48.40;;;;;;10527927;28;20545;-43
2023/07/06 15:12:41;;;;;;;3.28;0.80;;;28.50;49.40;;;;;;10526338;28;20052;-39
2023/07/06 15:17:42;;;;;;;1.02;0.60;;;27.80;51.80;;;;;;10532664;28;20141;-41
2023/07/06 15:22:44;;;;;;;1.55;0.73;;;27.50;51.90;;;;;;10522422;28;20087;-39
2023/07/06 15:27:47;;;;;;;1.02;0.55;;;28.40;51.50;;;;;;10529510;28;20143;-41
2023/07/06 15:32:49;;;;;;;5.50;0.80;;;28.30;49.70;;;;;;10530021;28;20113;-39
2023/07/06 15:37:51;;;;;;;1.90;0.70;;;28.20;49.70;;;;;;10533095;28;20118;-39
2023/07/06 15:42:54;;;;;;;2.17;1.00;;;28.60;50.80;;;;;;10523884;28;20404;-41
2023/07/06 15:47:56;;;;;;;2.35;1.05;;;28.10;46.30;;;;;;10527214;28;20056;-43
2023/07/06 15:52:58;;;;;;;1.75;0.60;;;28.40;48.60;;;;;;10533528;28;20704;-45
2023/07/06 15:58:02;;;;;;;2.00;0.80;;;29.00;48.30;;;;;;10521635;28;20098;-42
2023/07/06 16:03:04;;;;;;;1.50;0.60;;;28.80;44.00;;;;;;10531010;28;20052;-44
2023/07/06 16:08:07;;;;;;;2.28;0.85;;;29.50;49.20;;;;;;10536092;28;20568;-40
2023/07/06 16:13:10;;;;;;;3.83;0.93;;;29.60;48.70;;;;;;10527861;28;20056;-41
2023/07/06 16:18:12;;;;;;;2.08;0.88;;;30.30;46.50;;;;;;10534887;28;20074;-39
2023/07/06 16:23:14;;;;;;;0.63;0.50;;;30.50;49.90;;;;;;10534013;28;20055;-38
2023/07/06 16:28:18;;;;;;;2.35;0.77;;;30.40;48.60;;;;;;10536939;28;20131;-41
2023/07/06 16:33:19;;;;;;;1.35;0.68;;;30.30;47.90;;;;;;10525574;28;20089;-40
2023/07/06 16:38:21;;;;;;;2.25;0.82;;;30.00;47.80;;;;;;10531873;28;20138;-44
2023/07/06 16:43:24;;;;;;;2.45;0.98;;;30.30;48.00;;;;;;10530026;28;20129;-43
2023/07/06 16:48:26;;;;;;;2.58;0.98;;;30.00;44.00;;;;;;10551160;28;20523;-42
2023/07/06 16:53:29;;;;;;;4.85;0.90;;;30.60;45.90;;;;;;10529601;28;20093;-40
2023/07/06 16:58:32;;;;;;;3.05;0.90;;;30.60;49.00;;;;;;10525266;28;20127;-42
2023/07/06 17:03:35;;;;;;;2.63;0.80;;;30.70;47.80;;;;;;10530398;28;20048;-44
2023/07/06 17:08:37;;;;;;;1.30;0.70;;;30.90;46.70;;;;;;10532135;28;20122;-44
2023/07/06 17:13:40;;;;;;;3.30;0.80;;;31.00;49.00;;;;;;10527202;28;20155;-44
2023/07/06 17:18:42;;;;;;;3.42;0.90;;;30.50;47.30;;;;;;10528916;28;20747;-43
2023/07/06 17:23:44;;;;;;;1.08;0.98;;;30.60;48.00;;;;;;10529795;28;20772;-43
2023/07/06 17:28:47;;;;;;;1.52;0.88;;;30.90;43.10;;;;;;10530911;28;20897;-42
2023/07/06 17:33:49;;;;;;;1.27;0.57;;;30.70;47.70;;;;;;10530217;28;20080;-41
2023/07/06 17:38:51;;;;;;;1.98;0.80;;;30.90;47.70;;;;;;10526483;28;20156;-43
2023/07/06 17:43:54;;;;;;;1.35;0.50;;;31.30;45.90;;;;;;10525613;28;20040;-44
2023/07/06 17:48:56;;;;;;;4.65;0.70;;;31.30;49.60;;;;;;10527263;28;20048;-41
2023/07/06 17:53:58;;;;;;;1.05;0.73;;;31.60;48.70;;;;;;10524439;28;20055;-44
2023/07/06 17:59:01;;;;;;;5.28;1.17;;;31.20;47.80;;;;;;10529219;28;20377;-41
2023/07/06 18:04:04;;;;;;;2.45;0.93;;;32.40;39.40;;;;;;10526154;28;20138;-41
2023/07/06 18:09:06;;;;;;;1.17;0.57;;;33.80;49.50;;;;;;10530223;28;20067;-44
2023/07/06 18:14:09;;;;;;;4.15;0.73;;;33.00;46.70;;;;;;10534114;28;20518;-43
2023/07/06 18:19:11;;;;;;;2.88;0.60;;;31.60;45.90;;;;;;10533725;28;20123;-42
2023/07/06 18:24:13;;;;;;;4.03;2.00;;;31.20;46.30;;;;;;10536433;28;20051;-44
2023/07/06 18:29:16;;;;;;;3.03;1.00;;;31.20;46.50;;;;;;10523061;28;20082;-41
2023/07/06 18:34:18;;;;;;;3.00;0.82;;;31.10;48.50;;;;;;10528120;28;20101;-41
2023/07/06 18:39:22;;;;;;;1.58;0.90;;;30.80;47.10;;;;;;10528444;28;20044;-42
2023/07/06 18:44:25;;;;;;;2.58;0.95;;;30.80;48.20;;;;;;10529365;28;20079;-43
2023/07/06 18:49:27;;;;;;;5.20;1.08;;;30.70;47.50;;;;;;10531031;28;20051;-43
2023/07/06 18:54:29;;;;;;;3.00;1.00;;;30.80;47.50;;;;;;10515260;28;20156;-41
2023/07/06 18:59:34;;;;;;;5.38;1.02;;;30.70;48.50;;;;;;10527041;28;20525;-42
2023/07/06 19:04:36;;;;;;;1.50;0.80;;;30.70;45.30;;;;;;10523972;28;20074;-41
2023/07/06 19:09:38;;;;;;;2.50;0.90;;;30.40;48.00;;;;;;10523944;28;20069;-44
2023/07/06 19:14:42;;;;;;;1.58;0.68;;;30.40;47.90;;;;;;10518335;28;20557;-41
2023/07/06 19:19:44;;;;;;;2.05;0.93;;;30.40;47.90;;;;;;10525600;28;20214;-40
2023/07/06 19:24:46;;;;;;;2.00;0.73;;;30.10;47.30;;;;;;10516998;28;20106;-44
2023/07/06 19:29:50;;;;;;;3.35;1.05;;;30.20;48.20;;;;;;10518072;28;20164;-37
2023/07/06 19:34:52;;;;;;;1.92;0.93;;;30.10;48.10;;;;;;10531147;28;20193;-44
2023/07/06 19:39:53;;;;;;;2.85;1.00;;;30.00;48.00;;;;;;10519844;28;20140;-43
2023/07/06 19:44:57;;;;;;;4.05;0.88;;;29.90;48.10;;;;;;10516976;28;20117;-40
2023/07/06 19:49:58;;;;;;;3.00;1.15;;;29.90;48.30;;;;;;10517453;28;20086;-41
2023/07/06 19:55:00;;;;;;;5.47;1.08;;;29.80;48.30;;;;;;10529173;28;20051;-44
2023/07/06 20:00:04;;;;;;;5.18;1.00;;;29.70;48.50;;;;;;10529090;28;20197;-39
2023/07/06 20:05:08;;;;;;;3.92;1.10;;;29.60;48.40;;;;;;10541412;28;20330;-44
2023/07/06 20:10:10;;;;;;;5.20;0.95;;;29.50;48.60;;;;;;10526285;28;20040;-44
2023/07/06 20:15:13;;;;;;;2.83;1.25;;;29.40;48.60;;;;;;10525767;28;20176;-42
2023/07/06 20:20:15;;;;;;;3.53;1.30;;;29.30;48.70;;;;;;10529766;28;20113;-40
2023/07/06 20:25:17;;;;;;;4.10;1.20;;;29.20;48.70;;;;;;10531405;28;20565;-42
2023/07/06 20:30:20;;;;;;;4.88;1.50;;;29.20;48.90;;;;;;10532616;28;20051;-41
2023/07/06 20:35:22;;;;;;;4.72;1.52;;;29.10;48.90;;;;;;10517658;28;20566;-42
2023/07/06 20:40:24;;;;;;;4.18;1.30;;;29.10;49.10;;;;;;10523504;28;20040;-36
2023/07/06 20:45:28;;;;;;;3.97;1.77;;;29.00;49.10;;;;;;10531853;28;20055;-39
2023/07/06 20:50:30;;;;;;;3.60;1.48;;;28.90;49.20;;;;;;10533592;28;20128;-40
2023/07/06 20:55:34;;;;;;;8.90;1.48;;;28.80;49.40;;;;;;10534130;28;20550;-42
2023/07/06 21:00:37;;;;;;;3.28;1.83;;;28.80;49.50;;;;;;10529752;28;20060;-45
2023/07/06 21:05:40;;;;;;;6.72;2.13;;;28.70;49.50;;;;;;10546378;28;20044;-41
2023/07/06 21:10:42;;;;;;;6.65;1.85;;;28.60;49.50;;;;;;10535279;28;20067;-42
2023/07/06 21:15:45;;;;;;;5.13;2.17;;;28.60;50.20;;;;;;10534040;28;20064;-40
2023/07/06 21:20:47;;;;;;;5.32;2.42;;;28.50;49.70;;;;;;10533557;28;20040;-35
2023/07/06 21:25:49;;;;;;;6.35;2.70;;;28.40;49.80;;;;;;10533967;28;20079;-43
2023/07/06 21:30:55;;;;;;;5.53;2.53;;;28.40;49.90;;;;;;10524788;28;20097;-39
2023/07/06 21:35:57;;;;;;;4.97;2.75;;;28.30;50.00;;;;;;10553170;28;20124;-37
2023/07/06 21:40:59;;;;;;;5.75;2.40;;;28.30;50.20;;;;;;10535123;28;20122;-44
2023/07/06 21:46:04;;;;;;;3.63;2.08;;;28.20;50.10;;;;;;10519823;28;20048;-43
2023/07/06 21:51:10;;;;;;;4.28;2.03;;;28.20;50.30;;;;;;10532005;28;20050;-43
2023/07/06 21:56:14;;;;;;;6.55;1.88;;;28.10;50.40;;;;;;10541964;28;20050;-39
2023/07/06 22:01:17;;;;;;;4.13;1.98;;;28.10;50.40;;;;;;10529232;28;20078;-39
2023/07/06 22:06:20;;;;;;;2.90;1.55;;;28.00;50.50;;;;;;10528472;28;20078;-40
2023/07/06 22:11:25;;;;;;;4.03;1.67;;;27.90;50.50;;;;;;10538487;28;20091;-37
2023/07/06 22:16:28;;;;;;;5.47;1.92;;;27.90;50.70;;;;;;10523848;28;20044;-42
2023/07/06 22:21:30;;;;;;;2.90;2.00;;;27.80;50.70;;;;;;10528596;28;20525;-39
2023/07/06 22:26:32;;;;;;;3.42;1.85;;;27.80;50.80;;;;;;10530112;28;20532;-39
2023/07/06 22:31:35;;;;;;;4.05;1.55;;;27.70;50.80;;;;;;10527885;28;20079;-41
2023/07/06 22:36:37;;;;;;;2.22;1.40;;;27.70;50.90;;;;;;10533003;28;20050;-38
2023/07/06 22:41:38;;;;;;;2.97;1.75;;;27.60;51.00;;;;;;10527545;28;20075;-39
2023/07/06 22:46:41;;;;;;;2.00;1.48;;;27.60;51.10;;;;;;10527196;28;20135;-40
2023/07/06 22:51:43;;;;;;;2.75;1.38;;;27.60;51.10;;;;;;10519342;28;20156;-39
2023/07/06 22:56:45;;;;;;;1.80;1.38;;;27.50;51.20;;;;;;10526768;28;20455;-41
2023/07/06 23:01:49;;;;;;;4.20;1.60;;;27.40;51.20;;;;;;10527305;28;20036;-42
2023/07/06 23:06:50;;;;;;;3.65;1.35;;;27.40;51.20;;;;;;10528173;28;20072;-42
2023/07/06 23:11:52;;;;;;;2.25;1.33;;;27.40;51.30;;;;;;10533520;28;20420;-42
2023/07/06 23:16:55;;;;;;;3.10;1.42;;;27.30;51.30;;;;;;10526419;28;20630;-44
2023/07/06 23:22:00;;;;;;;2.42;1.08;;;27.30;51.40;;;;;;10526720;28;20131;-40
2023/07/06 23:27:01;;;;;;;2.08;1.25;;;27.20;51.40;;;;;;10523702;28;20070;-38
2023/07/06 23:32:07;;;;;;;2.72;1.10;;;27.10;51.40;;;;;;10535886;28;20493;-43
2023/07/06 23:37:09;;;;;;;3.60;1.33;;;27.10;51.50;;;;;;10539703;28;20056;-39
2023/07/06 23:42:11;;;;;;;3.50;1.42;;;27.00;51.50;;;;;;10534332;28;20463;-39
2023/07/06 23:47:14;;;;;;;3.00;1.33;;;27.00;51.50;;;;;;10533878;28;20052;-40
2023/07/06 23:52:16;;;;;;;2.88;1.17;;;27.00;51.70;;;;;;10536454;28;20087;-41
2023/07/06 23:57:18;;;;;;;2.53;1.17;;;26.90;51.60;;;;;;10536992;28;20105;-38
